Tiempo atmosférico en la estación meteorológica de Álora, Málaga (181 m.)



Fecha
DESCASC
Temp. máxima en grados centígrados (hora)
DESCASC
Temp. mínima en grados centígrados (hora)
DESCASC
Temp. media en grados centígrados
DESCASC
Racha de viento máxima en m/sg (hora)
DESCASC
Velocidad máxima media en intervalos de 10 minutos(hora)
DESCASC
Precipitaciones diarias en mm
DESCASC
Precipitaciones de 00:00 a 06:00 en mm
DESCASC
Precipitaciones de 06:00 a 12:00 en mm
DESCASC
Precipitaciones de 12:00 a 18:00 en mm
DESCASC
Precipitaciones de 18:00 a 24:00 en mm
DESCASC
16-01-2020 20.2 (15:10) 5 (08:50) 12.6 6.11 (13:50) 3.89 (13:50) 0 0 0 0 0
15-01-2020 21.7 (16:10) 5.8 (08:50) 13.8 4.17 (18:10) 3.33 (18:10) 0 0 0 0 0
14-01-2020 17.2 (13:50) 6.1 (05:00) 11.7 6.67 (12:50) 3.61 (07:20) 0 0 0 0 0
13-01-2020 18.1 (16:00) 5.8 (08:50) 12 5.56 (12:50) 3.33 (12:50) 0 0 0 0 0
12-01-2020 19.2 (16:00) 6.2 (00:00) 12.7 5.83 (16:00) 3.06 (14:20) 0 0 0 0 0
11-01-2020 18.5 (15:20) 4.8 (00:00) 11.7 6.11 (18:30) 4.44 (01:10) 0 0 0 0 0
10-01-2020 16 (15:20) 9.5 (00:00) 12.8 10.28 (18:30) 5.28 (20:20) 0 0 0 0 0
09-01-2020 17.8 (14:50) 8.7 (00:00) 13.2 5.28 (14:30) 3.33 (22:40) 0 0 0 0 0
08-01-2020 18.9 (15:40) 5 (00:00) 11.9 7.22 (19:10) 4.44 (19:10) 0 0 0 0 0
07-01-2020 19.3 (15:50) 5.1 (00:00) 12.2 5.28 (17:30) 3.89 (17:30) 0 0 0 0 0
06-01-2020 17.7 (15:30) 7.3 (00:00) 12.5 5.28 (13:00) 3.33 (16:50) 0 0 0 0 0
05-01-2020 16.3 (14:40) 10 (00:00) 13.1 8.33 (14:00) 5.83 (14:00) 0 0 0 0 0
04-01-2020 14.1 (14:10) 6.4 (00:00) 10.3 8.33 (23:40) 5.83 (23:40) 0 0 0 0 0
03-01-2020 17.3 (16:30) 5.9 (00:00) 11.6 9.17 (20:20) 5 (15:20) 0 0 0 0 0
02-01-2020 16.2 (16:10) 8 (00:00) 12.1 3.89 (15:00) 2.22 (13:00) 0 0 0 0 0
01-01-2020 18.7 (15:40) 8.1 (00:00) 13.4 5.83 (14:00) 3.89 (14:40) 0 0 0 0 0
31-12-2019 16 (14:30) 6.2 (00:00) 11.1 8.33 (16:50) 5.56 (16:50) 0 0 0 0 0
30-12-2019 -- (--) -- (--) -- -- (--) -- (--) -- 0 0 0 --
29-12-2019 15 (16:30) 11.6 (00:00) 13.3 8.61 (12:20) 5.83 (11:30) 0 0 0 0 0
28-12-2019 18.2 (15:40) 7.7 (00:00) 13 8.61 (14:40) 5.28 (14:40) 0 0 0 0 0
27-12-2019 19.1 (14:10) 9.5 (00:00) 14.3 7.22 (13:10) 4.72 (13:10) 0 0 0 0 0
26-12-2019 23.8 (14:30) 11.2 (00:00) 17.5 7.78 (04:30) 5.56 (07:10) 0 0 0 0 0
25-12-2019 23.9 (16:20) 9.8 (00:00) 16.8 6.94 (23:20) 4.72 (22:20) 0 0 0 0 0
24-12-2019 22.6 (16:20) 7.4 (00:00) 15 7.78 (14:30) 5.83 (14:30) 0 0 0 0 0
23-12-2019 24.2 (16:40) 11.2 (00:00) 17.7 9.44 (04:30) 4.17 (04:30) 0 0 0 0 0
22-12-2019 20.6 (15:00) 11.8 (00:00) 16.2 9.17 (15:40) 4.72 (13:50) 0 0 0 0 0
21-12-2019 20.6 (13:50) 16.2 (00:00) 18.4 18.61 (18:50) 10.56 (18:50) 0.2 0 0 0.2 0
20-12-2019 17.8 (16:00) 14.7 (00:00) 16.2 9.44 (00:10) 5.83 (00:10) 8.6 1.2 2.4 4.4 0.6

Gráficas

Temp. máximas Temp. mínimas Temp. medias Precipitaciones Rachas de viento máximas Velocidades máximas media en intervalos de 10 minutos

Datos horarios

Fecha y hora oficial Temperatura (ºC) Velocidad del viento (km/h) Dirección del viento Racha (km/h) Dirección de racha Precipitación (mm) Presión (hPa) Tendencia (hPa) Humedad (%)
2020-01-18 23:00:00 11.7 3 Sudoeste 5 Sudoeste 0 -- -- 86
2020-01-18 22:00:00 11.9 3 Norte 4 Sudoeste 0 -- -- 84
2020-01-18 21:00:00 12.5 0 Calma 5 Norte 0 -- -- 82
2020-01-18 20:00:00 13 0 Calma 3 Nordeste 0 -- -- 79
2020-01-18 19:00:00 13.2 0 Calma 5 Nordeste 0 -- -- 77
2020-01-18 18:00:00 13.4 0 Calma 2 Nordeste 0 -- -- 75
2020-01-18 17:00:00 13.6 0 Calma 6 Noroeste 0 -- -- 76
2020-01-18 16:00:00 14.1 3 Oeste 6 Sudoeste 0 -- -- 77
2020-01-18 15:00:00 13.8 0 Calma 9 Oeste 0 -- -- 71
2020-01-18 14:00:00 14.1 3 Sur 9 Sudeste 0 -- -- 69
2020-01-18 13:00:00 12.6 4 Sudeste 8 Sudeste 0 -- -- 72
2020-01-18 12:00:00 12.4 5 Oeste 9 Norte 0 -- -- 71
2020-01-18 11:00:00 10.8 0 Calma 12 Noroeste 0 -- -- 78
2020-01-18 10:00:00 10.1 2 Norte 9 Noroeste 0 -- -- 72
2020-01-18 09:00:00 8.8 4 Norte 9 Noroeste 0 -- -- 75
2020-01-18 08:00:00 8.7 3 Oeste 5 Oeste 0 -- -- 74
2020-01-18 07:00:00 8.6 0 Calma 12 Norte 0 -- -- 74
2020-01-18 06:00:00 8.6 6 Noroeste 11 Oeste 0 -- -- 76
2020-01-18 05:00:00 9.3 0 Calma 11 Norte 0 -- -- 75
2020-01-18 04:00:00 9.7 2 Noroeste 12 Noroeste 0 -- -- 73
2020-01-18 03:00:00 9.7 4 Oeste 8 Oeste 0 -- -- 76
2020-01-18 02:00:00 10.5 2 Norte 16 Nordeste 0 -- -- 72
2020-01-18 01:00:00 11.7 6 Norte 22 Noroeste 0 -- -- 71
2020-01-18 00:00:00 11.8 10 Noroeste 19 Noroeste 0 -- -- 75
2020-01-17 23:00:00 12.6 3 Oeste 14 Oeste 0 -- -- 70
2020-01-17 22:00:00 13.2 12 Oeste 19 Oeste 0 -- -- 69
2020-01-17 21:00:00 13.6 6 Noroeste 17 Norte 0 -- -- 69
2020-01-17 20:00:00 14.5 9 Norte 16 Norte 0 -- -- 65
2020-01-17 19:00:00 15.8 9 Norte 22 Norte 0 -- -- 60
2020-01-17 18:00:00 17.9 11 Norte 24 Norte 0 -- -- 53
2020-01-17 17:00:00 18.8 10 Norte 28 Norte 0 -- -- 53
2020-01-17 16:00:00 19.4 12 Norte 27 Noroeste 0 -- -- 53
2020-01-17 15:00:00 19.5 10 Norte 27 Noroeste 0 -- -- 52
2020-01-17 14:00:00 20 11 Noroeste 26 Noroeste 0 -- -- 52
2020-01-17 13:00:00 19.4 13 Noroeste 27 Oeste 0 -- -- 55
2020-01-17 12:00:00 16.8 4 Noroeste 11 Noroeste 0 -- -- 49
2020-01-17 11:00:00 12.1 0 Calma 7 Noroeste 0 -- -- 60
2020-01-17 10:00:00 9 0 Calma 7 Norte 0 -- -- 63
2020-01-17 09:00:00 8.3 4 Norte 13 Noroeste 0 -- -- 65
2020-01-17 08:00:00 7.2 3 Este 13 Norte 0 -- -- 67
2020-01-17 07:00:00 7 2 Sudeste 4 Noroeste 0 -- -- 70
2020-01-17 06:00:00 7.6 0 Calma 6 Nordeste 0 -- -- 70
2020-01-17 05:00:00 7.9 2 Este 6 Nordeste 0 -- -- 71
2020-01-17 04:00:00 7.9 2 Oeste 7 Norte 0 -- -- 71
2020-01-17 03:00:00 8.6 3 Noroeste 7 Sudeste 0 -- -- 70
2020-01-17 02:00:00 8.4 2 Noroeste 6 Noroeste 0 -- -- 70
2020-01-17 01:00:00 8.4 5 Noroeste 8 Oeste 0 -- -- 71
2020-01-17 00:00:00 9.1 0 Calma 3 Norte 0 -- -- 69
2020-01-16 23:00:00 9.3 0 Calma 4 Este 0 -- -- 67
2020-01-16 22:00:00 10.4 0 Calma 5 Oeste 0 -- -- 65
2020-01-16 21:00:00 11.6 2 Sudoeste 12 Nordeste 0 -- -- 63
2020-01-16 20:00:00 13.7 4 Este 10 Sudoeste 0 -- -- 57
2020-01-16 19:00:00 15.1 6 Sur 12 Sudoeste 0 -- -- 54
2020-01-16 18:00:00 17.4 7 Sur 16 Sur 0 -- -- 48
2020-01-16 17:00:00 19.2 12 Sur 19 Sur 0 -- -- 42
2020-01-16 16:00:00 20.2 9 Sur 19 Sur 0 -- -- 38
2020-01-16 15:00:00 19.9 12 Sur 21 Sur 0 -- -- 41
2020-01-16 14:00:00 19.3 13 Sur 22 Sur 0 -- -- 43
2020-01-16 13:00:00 17.6 10 Sudeste 17 Sur 0 -- -- 49
2020-01-16 12:00:00 15.4 3 Sudeste 7 Sur 0 -- -- 54
2020-01-16 11:00:00 10.8 0 Calma 5 Este 0 -- -- 71
2020-01-16 10:00:00 7 0 Calma 8 Norte 0 -- -- 79
2020-01-16 09:00:00 5.1 0 Calma 7 Noroeste 0 -- -- 85
2020-01-16 08:00:00 5.5 0 Calma 4 Este 0 -- -- 88
2020-01-16 07:00:00 5.1 0 Calma 11 Norte 0 -- -- 80
2020-01-16 06:00:00 5.9 5 Oeste 8 Oeste 0 -- -- 83
2020-01-16 05:00:00 6.6 0 Calma 6 Noroeste 0 -- -- 79
2020-01-16 04:00:00 6.6 0 Calma 6 Norte 0 -- -- 80
2020-01-16 03:00:00 7 3 Norte 5 Norte 0 -- -- 77
2020-01-16 02:00:00 7.4 0 Calma 3 Nordeste 0 -- -- 72
2020-01-16 01:00:00 7.9 0 Calma 5 Noroeste 0 -- -- 68
2020-01-16 00:00:00 8.5 0 Calma 7 Norte 0 -- -- 65
2020-01-15 23:00:00 9.6 3 Oeste 6 Oeste 0 -- -- 62
2020-01-15 22:00:00 10.8 0 Calma 4 Noroeste 0 -- -- 58
2020-01-15 21:00:00 12.5 0 Calma 8 Nordeste 0 -- -- 51
2020-01-15 20:00:00 14.3 0 Calma 6 Este 0 -- -- 48
2020-01-15 19:00:00 16.4 3 Este 15 Sur 0 -- -- 47
2020-01-15 18:00:00 18.4 10 Sur 14 Sur 0 -- -- 37
2020-01-15 17:00:00 21.2 7 Sur 14 Sur 0 -- -- 31
2020-01-15 16:00:00 21.4 4 Sur 13 Sudoeste 0 -- -- 30
2020-01-15 15:00:00 20.9 4 Sur 13 Sur 0 -- -- 31
2020-01-15 14:00:00 20.4 4 Sur 12 Sudeste 0 -- -- 34
2020-01-15 13:00:00 18.7 4 Sudoeste 10 Sudoeste 0 -- -- 40
2020-01-15 12:00:00 15 3 Noroeste 7 Noroeste 0 -- -- 52
2020-01-15 11:00:00 11 3 Sudoeste 5 Nordeste 0 -- -- 65
2020-01-15 10:00:00 7.4 0 Calma 5 Norte 0 -- -- 76
2020-01-15 09:00:00 5.8 2 Este 9 Norte 0 -- -- 79
2020-01-15 08:00:00 6.4 0 Calma 4 Noroeste 0 -- -- 78
2020-01-15 07:00:00 6.7 2 Noroeste 8 Noroeste 0 -- -- 77
2020-01-15 06:00:00 6.9 0 Calma 12 Noroeste 0 -- -- 76
2020-01-15 05:00:00 7.5 3 Norte 10 Norte 0 -- -- 74
2020-01-15 04:00:00 7.8 4 Noroeste 14 Noroeste 0 -- -- 74
2020-01-15 03:00:00 8.4 6 Noroeste 13 Noroeste 0 -- -- 72
2020-01-15 02:00:00 9 5 Noroeste 14 Norte 0 -- -- 70
2020-01-15 01:00:00 9.4 11 Norte 15 Norte 0 -- -- 68
2020-01-15 00:00:00 9.4 11 Norte 14 Noroeste 0 -- -- 65
2020-01-14 23:00:00 9.5 10 Norte 15 Noroeste 0 -- -- 64
2020-01-14 22:00:00 10.5 7 Norte 13 Noroeste 0 -- -- 60
2020-01-14 21:00:00 10.8 8 Norte 12 Norte 0 -- -- 58
2020-01-14 20:00:00 11.7 3 Norte 12 Norte 0 -- -- 56
2020-01-14 19:00:00 13.2 7 Noroeste 10 Noroeste 0 -- -- 51
2020-01-14 18:00:00 15.5 4 Noroeste 19 Noroeste 0 -- -- 48
2020-01-14 17:00:00 16.4 7 Noroeste 22 Oeste 0 -- -- 45
2020-01-14 16:00:00 15.6 8 Norte 23 Norte 0 -- -- 48
2020-01-14 15:00:00 16.6 11 Noroeste 23 Oeste 0 -- -- 46
2020-01-14 14:00:00 16.9 9 Noroeste 21 Oeste 0 -- -- 47
2020-01-14 13:00:00 15.6 9 Noroeste 24 Noroeste 0 -- -- 50
2020-01-14 12:00:00 13.9 7 Noroeste 16 Noroeste 0 -- -- 55
2020-01-14 11:00:00 11.2 4 Sudoeste 14 Noroeste 0 -- -- 67
2020-01-14 10:00:00 8.8 0 Calma 12 Nordeste 0 -- -- 72
2020-01-14 09:00:00 6.8 5 Nordeste 17 Noroeste 0 -- -- 77
2020-01-14 08:00:00 6.5 5 Norte 23 Noroeste 0 -- -- 77
2020-01-14 07:00:00 6.2 5 Noroeste 13 Noroeste 0 -- -- 78
2020-01-14 06:00:00 6.2 7 Nordeste 13 Noroeste 0 -- -- 77
2020-01-14 05:00:00 6.1 4 Norte 15 Noroeste 0 -- -- 77
2020-01-14 04:00:00 6.5 6 Norte 14 Noroeste 0 -- -- 76
2020-01-14 03:00:00 7.1 4 Nordeste 14 Noroeste 0 -- -- 75
2020-01-14 02:00:00 7.5 6 Noroeste 16 Noroeste 0 -- -- 74
2020-01-14 01:00:00 7.5 5 Nordeste 9 Norte 0 -- -- 73
2020-01-14 00:00:00 8.1 6 Norte 14 Noroeste 0 -- -- 71
2020-01-13 23:00:00 7.9 0 Calma 4 Norte 0 -- -- 77
2020-01-13 22:00:00 9 0 Calma 4 Noroeste 0 -- -- 77
2020-01-13 21:00:00 9.9 3 Noroeste 7 Norte 0 -- -- 75
2020-01-13 20:00:00 11.3 7 Nordeste 11 Nordeste 0 -- -- 67
2020-01-13 19:00:00 12.6 3 Sur 16 Sur 0 -- -- 70
2020-01-13 18:00:00 14.8 10 Sur 17 Sur 0 -- -- 60
2020-01-13 17:00:00 16.7 10 Sur 14 Sur 0 -- -- 50
2020-01-13 16:00:00 18.1 7 Sudoeste 15 Sur 0 -- -- 43
2020-01-13 15:00:00 17.8 8 Sudoeste 18 Sur 0 -- -- 44
2020-01-13 14:00:00 17.1 8 Sur 16 Sur 0 -- -- 48
2020-01-13 13:00:00 15.5 9 Sur 20 Sur 0 -- -- 59
2020-01-13 12:00:00 14.3 7 Sur 14 Sur 0 -- -- 67
2020-01-13 11:00:00 11 2 Sur 6 Sudeste 0 -- -- 79
2020-01-13 10:00:00 7.7 0 Calma 3 Sur 0 -- -- 92
2020-01-13 09:00:00 5.8 0 Calma 0 Calma 0 -- -- 92
2020-01-13 08:00:00 6.2 0 Calma 3 Noroeste 0 -- -- 91
2020-01-13 07:00:00 6.6 0 Calma 3 Norte 0 -- -- 89
2020-01-13 06:00:00 6.8 0 Calma 4 Este 0 -- -- 88
2020-01-13 05:00:00 7.3 0 Calma 2 Sudeste 0 -- -- 88
2020-01-13 04:00:00 7.2 0 Calma 3 Oeste 0 -- -- 88
2020-01-13 03:00:00 7.1 0 Calma 4 Noroeste 0 -- -- 87
2020-01-13 02:00:00 7.8 0 Calma 5 Norte 0 -- -- 86
2020-01-13 01:00:00 7.9 3 Noroeste 4 Noroeste 0 -- -- 85
2020-01-13 00:00:00 8.6 0 Calma 4 Nordeste 0 -- -- 82
2020-01-12 23:00:00 9.2 0 Calma 7 Noroeste 0 -- -- 80
2020-01-12 22:00:00 9.9 4 Norte 7 Noroeste 0 -- -- 76
2020-01-12 21:00:00 11.1 2 Oeste 12 Este 0 -- -- 73
2020-01-12 20:00:00 12.5 5 Este 10 Este 0 -- -- 61
2020-01-12 19:00:00 14 3 Sudeste 14 Norte 0 -- -- 46
2020-01-12 18:00:00 17.6 6 Oeste 17 Oeste 0 -- -- 38
2020-01-12 17:00:00 19.1 6 Noroeste 19 Noroeste 0 -- -- 39
2020-01-12 16:00:00 19.2 10 Norte 21 Norte 0 -- -- 36
2020-01-12 15:00:00 18.9 7 Norte 21 Oeste 0 -- -- 38
2020-01-12 14:00:00 18.6 6 Noroeste 15 Oeste 0 -- -- 46
2020-01-12 13:00:00 16.1 5 Norte 13 Noroeste 0 -- -- 53
2020-01-12 12:00:00 14.3 4 Noroeste 12 Oeste 0 -- -- 65
2020-01-12 11:00:00 11.1 5 Oeste 11 Noroeste 0 -- -- 75
2020-01-12 10:00:00 8.2 0 Calma 5 Noroeste 0 -- -- 91
2020-01-12 09:00:00 6.3 0 Calma 3 Noroeste 0 -- -- 92
2020-01-12 08:00:00 6.6 0 Calma 2 Norte 0 -- -- 91
2020-01-12 07:00:00 7 0 Calma 2 Noroeste 0 -- -- 90
2020-01-12 06:00:00 7.2 0 Calma 4 Noroeste 0 -- -- 89
2020-01-12 05:00:00 7.5 0 Calma 4 Oeste 0 -- -- 89
2020-01-12 04:00:00 8.2 0 Calma 5 Noroeste 0 -- -- 86
2020-01-12 03:00:00 8.3 0 Calma 4 Noroeste 0 -- -- 84
2020-01-12 02:00:00 8.7 0 Calma 4 Norte 0 -- -- 82
2020-01-12 01:00:00 9 0 Calma 4 Oeste 0 -- -- 81
2020-01-12 00:00:00 9.1 2 Oeste 3 Oeste 0 -- -- 81
2020-01-11 23:00:00 9.5 0 Calma 4 Norte 0 -- -- 77
2020-01-11 22:00:00 10.3 2 Noroeste 6 Noroeste 0 -- -- 73
2020-01-11 21:00:00 11.4 2 Norte 6 Sudeste 0 -- -- 69
2020-01-11 20:00:00 12.6 4 Sudeste 8 Sudeste 0 -- -- 66
2020-01-11 19:00:00 13.4 8 Sudeste 22 Sur 0 -- -- 62
2020-01-11 18:00:00 15.3 13 Sur 21 Sur 0 -- -- 56
2020-01-11 17:00:00 17.7 11 Sur 18 Sur 0 -- -- 50
2020-01-11 16:00:00 18.2 11 Sur 17 Sudeste 0 -- -- 44
2020-01-11 15:00:00 18 9 Sur 16 Sudoeste 0 -- -- 43
2020-01-11 14:00:00 17.8 6 Sur 13 Sur 0 -- -- 46
2020-01-11 13:00:00 16.7 4 Sudeste 10 Sur 0 -- -- 51
2020-01-11 12:00:00 13.3 4 Noroeste 10 Oeste 0 -- -- 53
2020-01-11 11:00:00 10.8 2 Sudeste 6 Sur 0 -- -- 61
2020-01-11 10:00:00 7 0 Calma 6 Nordeste 0 -- -- 70
2020-01-11 09:00:00 4.9 4 Norte 9 Noroeste 0 -- -- 74
2020-01-11 08:00:00 5.1 4 Nordeste 6 Nordeste 0 -- -- 71
2020-01-11 07:00:00 5.8 2 Este 9 Noroeste 0 -- -- 68
2020-01-11 06:00:00 6.4 3 Norte 10 Norte 0 -- -- 66
2020-01-11 05:00:00 7.1 3 Norte 12 Norte 0 -- -- 63
2020-01-11 04:00:00 7.9 3 Norte 10 Norte 0 -- -- 61
2020-01-11 03:00:00 8.1 3 Nordeste 17 Noroeste 0 -- -- 62
2020-01-11 02:00:00 8.4 3 Noroeste 21 Norte 0 -- -- 61
2020-01-11 01:00:00 8.8 13 Norte 20 Noroeste 0 -- -- 60
2020-01-11 00:00:00 9.8 11 Norte 16 Noroeste 0 -- -- 56
2020-01-10 23:00:00 10.8 3 Norte 16 Noroeste 0 -- -- 53
2020-01-10 22:00:00 11.6 4 Nordeste 22 Norte 0 -- -- 52
2020-01-10 21:00:00 12.1 12 Norte 30 Norte 0 -- -- 51
2020-01-10 20:00:00 12.4 16 Norte 29 Norte 0 -- -- 52
2020-01-10 19:00:00 13.8 17 Norte 37 Noroeste 0 -- -- 48
2020-01-10 18:00:00 14.1 8 Noroeste 24 Noroeste 0 -- -- 54
2020-01-10 17:00:00 15 10 Noroeste 28 Noroeste 0 -- -- 59
2020-01-10 16:00:00 15.5 8 Noroeste 26 Oeste 0 -- -- 59
2020-01-10 15:00:00 15.9 14 Noroeste 31 Norte 0 -- -- 58
2020-01-10 14:00:00 15.7 9 Norte 28 Norte 0 -- -- 61
2020-01-10 13:00:00 15.5 4 Noroeste 24 Noroeste 0 -- -- 62
2020-01-10 12:00:00 14.1 11 Norte 32 Norte 0 -- -- 69
2020-01-10 11:00:00 12.4 4 Noroeste 11 Norte 0 -- -- 77
2020-01-10 10:00:00 11 2 Sudoeste 10 Oeste 0 -- -- 81
2020-01-10 09:00:00 10.3 6 Norte 12 Norte 0 -- -- 82
2020-01-10 08:00:00 10.6 4 Noroeste 21 Noroeste 0 -- -- 81
2020-01-10 07:00:00 10.4 5 Norte 22 Noroeste 0 -- -- 80
2020-01-10 06:00:00 10.3 9 Noroeste 19 Oeste 0 -- -- 79
2020-01-10 05:00:00 10.1 4 Norte 19 Noroeste 0 -- -- 76
2020-01-10 04:00:00 10 8 Noroeste 19 Noroeste 0 -- -- 78
2020-01-10 03:00:00 9.8 8 Noroeste 20 Oeste 0 -- -- 78
2020-01-10 02:00:00 9.6 7 Norte 19 Noroeste 0 -- -- 77
2020-01-10 01:00:00 10.2 8 Noroeste 20 Oeste 0 -- -- 76
2020-01-10 00:00:00 9.7 10 Noroeste 18 Norte 0 -- -- 77
2020-01-09 23:00:00 9.7 10 Noroeste 17 Norte 0 -- -- 77
2020-01-09 22:00:00 10.2 2 Norte 9 Noroeste 0 -- -- 76
2020-01-09 21:00:00 10.6 0 Calma 7 Oeste 0 -- -- 81
2020-01-09 20:00:00 11.7 3 Nordeste 8 Sudeste 0 -- -- 77
2020-01-09 19:00:00 12.8 4 Sudeste 13 Sur 0 -- -- 75
2020-01-09 18:00:00 14.7 8 Sur 13 Sur 0 -- -- 66
2020-01-09 17:00:00 16.7 8 Sur 14 Sudeste 0 -- -- 57
2020-01-09 16:00:00 17.3 10 Sur 17 Sur 0 -- -- 55
2020-01-09 15:00:00 17.8 6 Sudoeste 19 Sur 0 -- -- 54
2020-01-09 14:00:00 16.7 9 Sur 18 Sur 0 -- -- 56
2020-01-09 13:00:00 15.2 6 Sur 15 Sur 0 -- -- 65
2020-01-09 12:00:00 13.6 4 Sudeste 8 Sudeste 0 -- -- 74
2020-01-09 11:00:00 11.4 0 Calma 6 Sudoeste 0 -- -- 85
2020-01-09 10:00:00 9.9 0 Calma 6 Sudoeste 0 -- -- 88
2020-01-09 09:00:00 9.5 0 Calma 5 Este 0 -- -- 87
2020-01-09 08:00:00 9.5 4 Este 6 Este 0 -- -- 87
2020-01-09 07:00:00 9.4 0 Calma 7 Sudeste 0 -- -- 86
2020-01-09 06:00:00 9.7 0 Calma 4 Este 0 -- -- 84
2020-01-09 05:00:00 9.5 0 Calma 4 Nordeste 0 -- -- 86
2020-01-09 04:00:00 9.5 0 Calma 5 Oeste 0 -- -- 86
2020-01-09 03:00:00 9.3 3 Noroeste 5 Oeste 0 -- -- 87
2020-01-09 02:00:00 8.9 0 Calma 9 Nordeste 0 -- -- 88
2020-01-09 01:00:00 8.7 2 Nordeste 5 Nordeste 0 -- -- 87
2020-01-09 00:00:00 9 0 Calma 4 Nordeste 0 -- -- 87
2020-01-08 23:00:00 9.5 2 Nordeste 6 Nordeste 0 -- -- 86
2020-01-08 22:00:00 10.3 0 Calma 9 Sudeste 0 -- -- 86
2020-01-08 21:00:00 10.8 4 Sudeste 13 Este 0 -- -- 84
2020-01-08 20:00:00 11.8 6 Sudeste 26 Sudoeste 0 -- -- 79
2020-01-08 19:00:00 13.1 10 Sudoeste 19 Sudoeste 0 -- -- 75
2020-01-08 18:00:00 16.3 10 Sur 15 Sur 0 -- -- 57
2020-01-08 17:00:00 18.7 10 Sur 17 Sur 0 -- -- 42
2020-01-08 16:00:00 18.6 12 Sur 18 Sur 0 -- -- 45
2020-01-08 15:00:00 18.6 9 Sur 13 Sudeste 0 -- -- 44
2020-01-08 14:00:00 17.4 7 Sur 14 Sur 0 -- -- 53
2020-01-08 13:00:00 15.4 9 Sudeste 16 Sudeste 0 -- -- 63
2020-01-08 12:00:00 13.3 6 Sudeste 11 Sudeste 0 -- -- 64
2020-01-08 11:00:00 10.2 3 Sudeste 5 Sudeste 0 -- -- 65
2020-01-08 10:00:00 8 0 Calma 6 Norte 0 -- -- 70
2020-01-08 09:00:00 6.2 3 Nordeste 5 Norte 0 -- -- 74
2020-01-08 08:00:00 5.4 0 Calma 5 Noroeste 0 -- -- 79
2020-01-08 07:00:00 5.3 0 Calma 4 Este 0 -- -- 91
2020-01-08 06:00:00 5.2 0 Calma 3 Nordeste 0 -- -- 90
2020-01-08 05:00:00 5.7 0 Calma 6 Noroeste 0 -- -- 89
2020-01-08 04:00:00 5.8 0 Calma 5 Norte 0 -- -- 88
2020-01-08 03:00:00 6.1 2 Noroeste 4 Noroeste 0 -- -- 88
2020-01-08 02:00:00 6.5 3 Noroeste 4 Noroeste 0 -- -- 87
2020-01-08 01:00:00 6.8 0 Calma 6 Noroeste 0 -- -- 86
2020-01-08 00:00:00 7.4 0 Calma 3 Nordeste 0 -- -- 85
2020-01-07 23:00:00 8 0 Calma 4 Oeste 0 -- -- 83
2020-01-07 22:00:00 8.6 0 Calma 4 Sur 0 -- -- 82
2020-01-07 21:00:00 10.2 0 Calma 6 Este 0 -- -- 78
2020-01-07 20:00:00 11.8 4 Este 10 Sudeste 0 -- -- 76
2020-01-07 19:00:00 13.2 2 Sudeste 12 Sur 0 -- -- 69
2020-01-07 18:00:00 15.4 8 Sudeste 19 Sur 0 -- -- 60
2020-01-07 17:00:00 18.2 11 Sur 16 Sur 0 -- -- 50
2020-01-07 16:00:00 19.1 7 Sur 14 Sudeste 0 -- -- 43
2020-01-07 15:00:00 18.7 8 Sur 16 Sur 0 -- -- 47
2020-01-07 14:00:00 17.2 10 Sur 17 Sur 0 -- -- 57
2020-01-07 13:00:00 15.8 6 Sur 11 Sur 0 -- -- 62
2020-01-07 12:00:00 13.4 3 Nordeste 8 Sudeste 0 -- -- 72
2020-01-07 11:00:00 9.8 4 Sudeste 6 Sudeste 0 -- -- 80
2020-01-07 10:00:00 6.7 2 Sur 6 Norte 0 -- -- 90
2020-01-07 09:00:00 5.1 4 Norte 8 Norte 0 -- -- 92
2020-01-07 08:00:00 5.5 3 Oeste 8 Noroeste 0 -- -- 92
2020-01-07 07:00:00 5.6 5 Noroeste 7 Noroeste 0 -- -- 92
2020-01-07 06:00:00 6 0 Calma 6 Norte 0 -- -- 92
2020-01-07 05:00:00 6.2 2 Oeste 4 Norte 0 -- -- 92
2020-01-07 04:00:00 6.1 3 Noroeste 5 Este 0 -- -- 91
2020-01-07 03:00:00 6.5 0 Calma 7 Noroeste 0 -- -- 89
2020-01-07 02:00:00 6.8 4 Nordeste 5 Este 0 -- -- 89
2020-01-07 01:00:00 7.2 3 Este 5 Este 0 -- -- 87
2020-01-07 00:00:00 7.7 0 Calma 3 Este 0 -- -- 85
2020-01-06 23:00:00 8.3 0 Calma 2 Sudeste 0 -- -- 82
2020-01-06 22:00:00 9 0 Calma 4 Sudeste 0 -- -- 81
2020-01-06 21:00:00 10.3 0 Calma 11 Este 0 -- -- 76
2020-01-06 20:00:00 11.7 3 Sudeste 6 Este 0 -- -- 73
2020-01-06 19:00:00 12.6 0 Calma 10 Sudeste 0 -- -- 70
2020-01-06 18:00:00 14.3 8 Sudeste 18 Sur 0 -- -- 63
2020-01-06 17:00:00 16.8 12 Sur 16 Sur 0 -- -- 54
2020-01-06 16:00:00 17.4 7 Sur 14 Sudeste 0 -- -- 53
2020-01-06 15:00:00 17.2 4 Sudeste 17 Sur 0 -- -- 53
2020-01-06 14:00:00 16.4 10 Sudeste 17 Sur 0 -- -- 56
2020-01-06 13:00:00 15.5 5 Sudoeste 19 Sur 0 -- -- 60
2020-01-06 12:00:00 13.3 2 Sudeste 6 Sur 0 -- -- 73
2020-01-06 11:00:00 9.4 2 Nordeste 8 Sudeste 0 -- -- 85
2020-01-06 10:00:00 8.2 0 Calma 4 Sur 0 -- -- 87